Time;durP1;ratioP1;P1;durP2;ratioP2;P2;SDS_P1;SDS_P2;PMS_P1;PMS_P2;Temp;Humidity;BMP_temperature;BMP_pressure;BME280_temperature;BME280_humidity;BME280_pressure;Samples;Min_cycle;Max_cycle;Signal;HPM_P1;HPM_P2
2021/03/15 00:00:17;;;;;;;3.08;2.10;;;5.90;99.90;;;;;;5062165;28;20031;-72
2021/03/15 00:02:44;;;;;;;2.90;2.00;;;5.90;99.90;;;;;;5059805;28;20098;-72
2021/03/15 00:05:12;;;;;;;3.38;2.03;;;5.80;99.90;;;;;;5051616;28;20032;-72
2021/03/15 00:07:39;;;;;;;3.78;2.35;;;5.80;99.90;;;;;;5059967;28;20031;-71
2021/03/15 00:10:05;;;;;;;3.63;2.10;;;5.80;99.90;;;;;;5062876;28;20480;-72
2021/03/15 00:12:32;;;;;;;3.03;2.25;;;5.80;99.90;;;;;;5053054;28;20032;-72
2021/03/15 00:14:57;;;;;;;3.55;2.47;;;5.80;99.90;;;;;;5048169;28;20032;-72
2021/03/15 00:17:23;;;;;;;4.80;2.67;;;5.80;99.90;;;;;;5060436;28;20020;-72
2021/03/15 00:19:48;;;;;;;3.85;2.35;;;5.80;99.90;;;;;;5050149;28;20466;-72
2021/03/15 00:22:14;;;;;;;4.28;2.42;;;5.80;99.90;;;;;;5053264;28;20471;-72
2021/03/15 00:24:39;;;;;;;3.80;2.35;;;5.80;99.90;;;;;;5064398;28;20029;-72
2021/03/15 00:27:07;;;;;;;6.03;2.92;;;5.70;99.90;;;;;;5061934;28;20056;-71
2021/03/15 00:29:33;;;;;;;6.75;2.72;;;5.70;99.90;;;;;;5067110;28;20119;-72
2021/03/15 00:32:01;;;;;;;3.75;2.00;;;5.70;99.90;;;;;;5060958;28;20551;-72
2021/03/15 00:34:27;;;;;;;4.32;2.08;;;5.70;99.90;;;;;;5057115;28;20047;-72
2021/03/15 00:36:53;;;;;;;5.07;2.08;;;5.70;99.90;;;;;;5056575;28;20037;-71
2021/03/15 00:39:19;;;;;;;3.38;1.90;;;5.70;99.90;;;;;;5059454;28;20029;-72
2021/03/15 00:41:44;;;;;;;3.80;2.22;;;5.70;99.90;;;;;;5068777;28;20082;-72
2021/03/15 00:44:10;;;;;;;4.43;1.83;;;5.70;99.90;;;;;;5059480;28;20016;-71
2021/03/15 00:46:36;;;;;;;3.25;2.10;;;5.70;99.90;;;;;;5064912;28;20040;-72
2021/03/15 00:49:02;;;;;;;5.15;2.00;;;5.70;99.90;;;;;;5060426;28;20049;-72
2021/03/15 00:51:30;;;;;;;3.55;1.92;;;5.70;99.90;;;;;;5053206;28;20017;-72
2021/03/15 00:53:56;;;;;;;4.68;2.45;;;5.70;99.90;;;;;;5068550;28;20020;-72
2021/03/15 00:56:21;;;;;;;3.97;1.77;;;5.60;99.90;;;;;;5066688;28;20012;-72
2021/03/15 00:58:47;;;;;;;4.68;1.92;;;5.60;99.90;;;;;;5062020;28;20024;-72
2021/03/15 01:01:19;;;;;;;4.55;1.85;;;5.50;99.90;;;;;;5061072;28;20108;-72
2021/03/15 01:03:44;;;;;;;2.15;1.65;;;5.50;99.90;;;;;;5065532;28;20025;-73
2021/03/15 01:06:12;;;;;;;5.00;1.90;;;5.50;99.90;;;;;;5064003;28;20158;-72
2021/03/15 01:08:38;;;;;;;2.50;1.38;;;5.50;99.90;;;;;;5059365;28;20434;-72
2021/03/15 01:11:04;;;;;;;2.75;1.88;;;5.50;99.90;;;;;;5052782;28;20104;-72
2021/03/15 01:13:30;;;;;;;4.70;1.65;;;5.60;99.90;;;;;;5061739;28;20153;-72
2021/03/15 01:15:55;;;;;;;2.88;1.45;;;5.50;99.90;;;;;;5063744;28;20384;-72
2021/03/15 01:18:21;;;;;;;6.13;1.65;;;5.50;99.90;;;;;;5062895;28;20099;-72
2021/03/15 01:20:46;;;;;;;3.25;1.50;;;5.60;99.90;;;;;;5052474;28;20017;-73
2021/03/15 01:23:12;;;;;;;4.25;1.73;;;5.60;99.90;;;;;;5057396;28;20033;-73
2021/03/15 01:25:40;;;;;;;2.67;1.77;;;5.60;99.90;;;;;;5051337;28;20047;-72
2021/03/15 01:28:10;;;;;;;3.20;1.77;;;5.60;99.90;;;;;;5059087;28;20032;-71
2021/03/15 01:30:37;;;;;;;2.55;1.48;;;5.50;99.90;;;;;;5060972;28;20059;-72
2021/03/15 01:33:04;;;;;;;3.65;1.60;;;5.50;99.90;;;;;;5059424;28;20025;-72
2021/03/15 01:35:30;;;;;;;2.72;1.70;;;5.60;99.90;;;;;;5063309;28;20033;-72
2021/03/15 01:37:56;;;;;;;4.03;1.85;;;5.60;99.90;;;;;;5067396;28;20032;-72
2021/03/15 01:40:23;;;;;;;8.20;1.70;;;5.60;99.90;;;;;;5063382;28;20672;-72
2021/03/15 01:42:50;;;;;;;4.75;2.28;;;5.70;99.90;;;;;;5054467;28;20089;-73
2021/03/15 01:45:15;;;;;;;4.07;1.80;;;5.60;99.90;;;;;;5062431;28;20052;-72
2021/03/15 01:47:42;;;;;;;5.97;2.15;;;5.70;99.90;;;;;;5062928;28;20087;-72
2021/03/15 01:50:10;;;;;;;3.70;1.95;;;5.70;99.90;;;;;;5064954;28;20024;-72
2021/03/15 01:52:38;;;;;;;4.10;1.75;;;5.70;99.90;;;;;;5055908;28;20456;-72
2021/03/15 01:55:05;;;;;;;3.20;2.10;;;5.60;99.90;;;;;;5052029;28;20029;-72
2021/03/15 01:57:31;;;;;;;3.55;1.90;;;5.70;99.90;;;;;;5064893;28;20939;-72
2021/03/15 01:59:57;;;;;;;6.15;1.95;;;5.70;99.90;;;;;;5060040;28;20032;-72
2021/03/15 02:02:22;;;;;;;3.17;2.13;;;5.70;99.90;;;;;;5062846;28;20024;-71
2021/03/15 02:04:48;;;;;;;4.10;1.90;;;5.60;99.90;;;;;;5069057;28;20017;-72
2021/03/15 02:07:13;;;;;;;4.15;1.70;;;5.70;99.90;;;;;;5063070;28;20085;-72
2021/03/15 02:09:39;;;;;;;4.85;2.20;;;5.60;99.90;;;;;;5063071;28;20021;-71
2021/03/15 02:12:21;;;;;;;2.42;1.75;;;5.70;99.90;;;;;;5053539;28;20127;-72
2021/03/15 02:15:20;;;;;;;4.63;2.00;;;5.70;99.90;;;;;;5050998;28;20495;-71
2021/03/15 02:18:43;;;;;;;5.13;1.75;;;5.70;99.90;;;;;;5054877;28;20028;-72
2021/03/15 02:21:15;;;;;;;4.75;1.70;;;5.60;99.90;;;;;;5013083;28;20028;-72
2021/03/15 02:23:40;;;;;;;5.45;2.15;;;5.60;99.90;;;;;;5064732;28;20636;-72
2021/03/15 02:26:30;;;;;;;5.10;2.08;;;5.60;99.90;;;;;;5059094;28;20036;-72
2021/03/15 02:29:25;;;;;;;6.13;1.95;;;5.60;99.90;;;;;;5064906;28;20128;-71
2021/03/15 02:32:27;;;;;;;3.95;1.77;;;5.60;99.90;;;;;;5065326;28;20119;-72
2021/03/15 02:35:10;;;;;;;3.80;1.95;;;5.70;99.90;;;;;;5054417;28;20090;-72
2021/03/15 02:37:42;;;;;;;3.70;1.92;;;5.70;99.90;;;;;;5055182;28;20028;-71
2021/03/15 02:40:10;;;;;;;8.15;2.30;;;5.60;99.90;;;;;;5050816;28;20037;-72
2021/03/15 02:42:38;;;;;;;4.20;1.95;;;5.60;99.90;;;;;;5051701;28;20033;-72
2021/03/15 02:45:06;;;;;;;5.75;2.55;;;5.60;99.90;;;;;;5055888;28;20020;-72
2021/03/15 02:47:37;;;;;;;4.20;2.25;;;5.70;99.90;;;;;;5053617;28;20442;-72
2021/03/15 02:50:04;;;;;;;;;;;5.70;99.90;;;;;;5053168;28;20071;-72
2021/03/15 02:52:31;;;;;;;5.43;2.15;;;5.70;99.90;;;;;;5053171;28;19921;-72
2021/03/15 02:55:00;;;;;;;2.97;1.80;;;5.70;99.90;;;;;;5060934;28;20118;-72
2021/03/15 02:57:28;;;;;;;3.05;1.83;;;5.70;99.90;;;;;;5056856;28;20044;-72
2021/03/15 02:59:56;;;;;;;3.20;2.15;;;5.60;99.90;;;;;;5035435;28;20029;-71
2021/03/15 03:02:23;;;;;;;5.68;2.42;;;5.70;99.90;;;;;;5055235;28;20506;-72
2021/03/15 03:04:48;;;;;;;7.18;1.90;;;5.70;99.90;;;;;;5052406;28;20542;-72
2021/03/15 03:07:17;;;;;;;7.53;2.35;;;5.70;99.90;;;;;;5052511;28;20053;-72
2021/03/15 03:09:43;;;;;;;4.47;2.15;;;5.70;99.90;;;;;;5049118;28;20025;-72
2021/03/15 03:12:11;;;;;;;7.00;2.10;;;5.80;99.90;;;;;;5060090;28;20089;-72
2021/03/15 03:14:39;;;;;;;3.47;1.95;;;5.70;99.90;;;;;;5063660;28;20517;-72
2021/03/15 03:17:06;;;;;;;3.42;2.30;;;5.70;99.90;;;;;;5058284;28;20425;-72
2021/03/15 03:19:32;;;;;;;5.55;2.13;;;5.70;99.90;;;;;;5061848;28;20017;-71
2021/03/15 03:22:00;;;;;;;4.45;2.35;;;5.70;99.90;;;;;;5059033;28;20043;-72
2021/03/15 03:24:28;;;;;;;3.97;2.17;;;5.70;99.90;;;;;;5066135;28;20383;-72
2021/03/15 03:26:54;;;;;;;4.55;2.50;;;5.70;99.90;;;;;;5057778;28;20023;-71
2021/03/15 03:29:20;;;;;;;4.85;2.63;;;5.70;99.90;;;;;;5057412;28;20171;-73
2021/03/15 03:31:48;;;;;;;6.65;2.60;;;5.70;99.90;;;;;;5060436;28;20379;-72
2021/03/15 03:34:14;;;;;;;4.65;2.67;;;5.70;99.90;;;;;;5064800;28;20040;-72
2021/03/15 03:36:41;;;;;;;8.50;2.67;;;5.70;99.90;;;;;;5063722;28;20028;-72
2021/03/15 03:39:09;;;;;;;5.50;2.95;;;5.80;99.90;;;;;;5048629;28;20035;-72
2021/03/15 03:41:36;;;;;;;6.85;3.25;;;5.80;99.90;;;;;;5058635;28;20558;-71
2021/03/15 03:44:02;;;;;;;14.07;3.95;;;5.80;99.90;;;;;;5054289;28;20033;-72
2021/03/15 03:46:27;;;;;;;8.75;3.55;;;5.80;99.90;;;;;;5058747;28;20068;-72
2021/03/15 03:48:53;;;;;;;7.05;3.63;;;5.80;99.90;;;;;;5063658;28;20161;-71
2021/03/15 03:51:21;;;;;;;8.05;3.10;;;5.80;99.90;;;;;;5054126;28;20083;-72
2021/03/15 03:53:59;;;;;;;10.70;3.60;;;5.70;99.90;;;;;;5057387;28;20086;-72
2021/03/15 03:56:34;;;;;;;9.07;3.58;;;5.70;99.90;;;;;;5062399;28;20024;-72
2021/03/15 03:58:59;;;;;;;6.75;3.33;;;5.70;99.90;;;;;;5061652;28;20050;-72
2021/03/15 04:01:37;;;;;;;11.50;3.75;;;5.70;99.90;;;;;;5059373;28;20530;-71
2021/03/15 04:04:05;;;;;;;6.88;3.50;;;5.60;99.90;;;;;;5069906;28;20498;-72
2021/03/15 04:06:34;;;;;;;11.85;3.88;;;5.60;99.90;;;;;;5053587;28;20052;-71
2021/03/15 04:09:10;;;;;;;8.32;3.78;;;5.60;99.90;;;;;;5057249;28;20039;-72
2021/03/15 04:11:39;;;;;;;6.28;3.25;;;5.50;99.90;;;;;;5066639;28;20120;-71
2021/03/15 04:14:07;;;;;;;15.13;3.63;;;5.60;99.90;;;;;;5061459;28;20112;-72
2021/03/15 04:16:38;;;;;;;9.75;3.60;;;5.50;99.90;;;;;;5055715;28;20100;-72
2021/03/15 04:19:06;;;;;;;5.45;3.22;;;5.50;99.90;;;;;;5052686;28;20025;-71
2021/03/15 04:21:33;;;;;;;10.60;3.70;;;5.50;99.90;;;;;;5060276;28;20078;-72
2021/03/15 04:24:01;;;;;;;8.80;3.65;;;5.40;99.90;;;;;;5064369;28;20449;-72
2021/03/15 04:26:27;;;;;;;13.05;4.10;;;5.40;99.90;;;;;;5068196;28;20037;-72
2021/03/15 04:28:55;;;;;;;6.55;3.55;;;5.40;99.90;;;;;;5062988;28;20040;-72
2021/03/15 04:31:22;;;;;;;5.50;3.20;;;5.40;99.90;;;;;;5058699;28;20032;-72
2021/03/15 04:33:48;;;;;;;11.00;3.72;;;5.30;99.90;;;;;;5056433;28;20029;-72
2021/03/15 04:36:15;;;;;;;9.20;3.67;;;5.30;99.90;;;;;;5066414;28;20029;-71
2021/03/15 04:38:42;;;;;;;8.57;3.47;;;5.30;99.90;;;;;;5065492;28;20104;-72
2021/03/15 04:41:10;;;;;;;13.70;4.40;;;5.30;99.90;;;;;;5056093;28;20022;-71
2021/03/15 04:43:38;;;;;;;10.18;4.32;;;5.20;99.90;;;;;;5058264;28;20029;-72
2021/03/15 04:46:05;;;;;;;11.35;3.92;;;5.30;99.90;;;;;;5065864;28;20032;-72
2021/03/15 04:48:31;;;;;;;7.43;3.60;;;5.30;99.90;;;;;;5067896;28;20052;-72
2021/03/15 04:51:01;;;;;;;11.88;4.47;;;5.40;99.90;;;;;;5055510;28;20032;-72
2021/03/15 04:53:28;;;;;;;9.30;4.18;;;5.40;99.90;;;;;;5065071;28;20045;-71
2021/03/15 04:55:57;;;;;;;6.70;3.72;;;5.40;99.90;;;;;;5064397;28;20107;-72
2021/03/15 04:58:24;;;;;;;4.97;3.15;;;5.40;99.90;;;;;;5061991;28;20025;-71
2021/03/15 05:00:57;;;;;;;12.85;4.53;;;5.40;99.90;;;;;;5059976;28;20036;-72
2021/03/15 05:03:24;;;;;;;7.63;3.80;;;5.30;99.90;;;;;;5060896;28;20025;-72
2021/03/15 05:05:52;;;;;;;15.43;4.05;;;5.30;99.90;;;;;;5049521;28;20041;-72
2021/03/15 05:08:22;;;;;;;9.35;3.67;;;5.30;99.90;;;;;;5050647;28;20029;-72
2021/03/15 05:10:48;;;;;;;11.30;4.00;;;5.40;99.90;;;;;;5050367;28;20152;-72
2021/03/15 05:13:14;;;;;;;8.90;3.42;;;5.30;99.90;;;;;;5054477;28;20036;-72
2021/03/15 05:15:41;;;;;;;8.93;3.80;;;5.40;99.90;;;;;;5052357;28;20032;-72
2021/03/15 05:18:09;;;;;;;9.50;3.25;;;5.40;99.90;;;;;;5058508;28;20434;-71
2021/03/15 05:20:35;;;;;;;11.80;3.70;;;5.40;99.90;;;;;;5064469;28;20463;-72
2021/03/15 05:23:08;;;;;;;7.65;3.67;;;5.40;99.90;;;;;;5049384;28;20161;-71
2021/03/15 05:25:35;;;;;;;11.13;3.38;;;5.40;99.90;;;;;;5057769;28;20033;-72
2021/03/15 05:28:01;;;;;;;8.90;3.70;;;5.40;99.90;;;;;;5051689;28;20044;-72
2021/03/15 05:30:29;;;;;;;14.05;3.88;;;5.50;99.90;;;;;;5048051;28;20036;-72
2021/03/15 05:32:55;;;;;;;6.65;3.25;;;5.50;99.90;;;;;;5053413;28;20036;-71
2021/03/15 05:35:22;;;;;;;12.50;4.35;;;5.40;99.90;;;;;;5048608;28;20020;-72
2021/03/15 05:37:49;;;;;;;9.88;4.13;;;5.40;99.90;;;;;;5049201;28;20116;-71
2021/03/15 05:40:20;;;;;;;11.60;3.88;;;5.40;99.90;;;;;;5048784;28;20037;-72
2021/03/15 05:43:19;;;;;;;8.05;3.53;;;5.50;99.90;;;;;;5052822;28;20025;-72
2021/03/15 05:46:07;;;;;;;8.85;3.58;;;5.50;99.90;;;;;;5057388;28;20316;-73
2021/03/15 05:48:51;;;;;;;13.90;4.22;;;5.50;99.90;;;;;;5049082;28;20068;-72
2021/03/15 05:52:08;;;;;;;6.70;3.58;;;5.50;99.90;;;;;;5052687;28;20016;-72
2021/03/15 05:55:02;;;;;;;15.18;4.43;;;5.50;99.90;;;;;;5026693;28;20040;-72
2021/03/15 05:58:01;;;;;;;9.00;3.75;;;5.50;99.90;;;;;;5050644;28;20515;-71
2021/03/15 06:00:55;;;;;;;9.57;4.00;;;5.60;99.90;;;;;;5050666;28;20028;-71
2021/03/15 06:04:01;;;;;;;10.82;4.28;;;5.60;99.90;;;;;;5046831;28;20020;-72
2021/03/15 06:06:36;;;;;;;9.77;3.80;;;5.70;99.90;;;;;;5046899;28;20020;-72
2021/03/15 06:09:02;;;;;;;9.20;3.70;;;5.70;99.90;;;;;;5053538;28;20036;-72
2021/03/15 06:11:42;;;;;;;14.40;3.83;;;5.70;99.90;;;;;;5054182;28;20368;-71
2021/03/15 06:14:08;;;;;;;11.60;3.55;;;5.70;99.90;;;;;;5053701;28;20020;-71
2021/03/15 06:16:34;;;;;;;8.95;4.07;;;5.70;99.90;;;;;;5052691;28;20027;-72
2021/03/15 06:19:01;;;;;;;8.00;4.00;;;5.70;99.90;;;;;;5054390;28;20115;-72
2021/03/15 06:21:27;;;;;;;9.20;3.97;;;5.60;99.90;;;;;;5048059;28;20021;-72
2021/03/15 06:23:58;;;;;;;10.85;3.78;;;5.70;99.90;;;;;;5039989;28;20115;-72
2021/03/15 06:26:24;;;;;;;14.38;3.75;;;5.70;99.90;;;;;;5056117;28;20808;-72
2021/03/15 06:28:49;;;;;;;7.85;3.55;;;5.70;99.90;;;;;;5054258;28;20090;-72
2021/03/15 06:31:17;;;;;;;9.13;3.50;;;5.60;99.90;;;;;;5049560;28;20027;-71
2021/03/15 06:33:45;;;;;;;6.50;3.80;;;5.70;99.90;;;;;;5053535;28;20037;-72
2021/03/15 06:36:13;;;;;;;8.65;3.63;;;5.70;99.90;;;;;;5049444;28;20495;-72
2021/03/15 06:38:40;;;;;;;10.20;3.60;;;5.70;99.90;;;;;;5054180;28;20453;-72
2021/03/15 06:41:07;;;;;;;13.23;3.53;;;5.70;99.90;;;;;;5055525;28;20099;-72
2021/03/15 06:43:33;;;;;;;12.00;3.63;;;5.70;99.90;;;;;;5055652;28;20078;-72
2021/03/15 06:45:59;;;;;;;8.60;3.30;;;5.70;99.90;;;;;;5053136;28;20028;-72
2021/03/15 06:48:26;;;;;;;9.50;3.70;;;5.70;99.90;;;;;;5047282;28;20075;-71
2021/03/15 06:50:53;;;;;;;6.20;3.08;;;5.80;99.90;;;;;;5057910;28;20094;-72
2021/03/15 06:53:22;;;;;;;8.63;3.80;;;5.80;99.90;;;;;;5044511;28;20111;-72
2021/03/15 06:55:53;;;;;;;9.32;3.80;;;5.80;99.90;;;;;;5049185;28;20032;-71
2021/03/15 06:58:27;;;;;;;8.52;4.45;;;5.80;99.90;;;;;;5048588;28;20028;-72
2021/03/15 07:01:16;;;;;;;9.25;3.55;;;5.70;99.90;;;;;;5052153;28;20021;-71
2021/03/15 07:03:44;;;;;;;8.20;3.28;;;5.80;99.90;;;;;;5058158;28;20065;-72
2021/03/15 07:06:11;;;;;;;7.07;3.60;;;5.80;99.90;;;;;;5058405;28;20487;-72
2021/03/15 07:08:37;;;;;;;9.20;3.78;;;5.90;99.90;;;;;;5066914;28;20542;-73
2021/03/15 07:11:03;;;;;;;7.97;3.42;;;6.00;99.90;;;;;;5055174;28;20025;-73
2021/03/15 07:13:37;;;;;;;10.57;3.83;;;6.00;99.90;;;;;;5054682;28;20040;-73
2021/03/15 07:16:04;;;;;;;4.72;3.00;;;6.00;99.90;;;;;;5055240;28;20049;-72
2021/03/15 07:18:34;;;;;;;5.85;3.10;;;6.10;99.90;;;;;;5051465;28;20032;-73
2021/03/15 07:21:06;;;;;;;10.15;3.50;;;6.10;99.90;;;;;;5050209;28;20028;-73
2021/03/15 07:23:49;;;;;;;6.90;3.53;;;6.10;99.90;;;;;;5051001;28;20038;-72
2021/03/15 07:26:22;;;;;;;6.50;3.08;;;6.20;99.90;;;;;;5049434;28;20025;-73
2021/03/15 07:28:48;;;;;;;6.13;2.85;;;6.20;99.90;;;;;;5054389;28;20119;-73
2021/03/15 07:31:20;;;;;;;3.63;2.65;;;6.30;99.90;;;;;;5060394;28;20059;-76
2021/03/15 07:33:55;;;;;;;4.70;2.83;;;6.30;99.90;;;;;;5054624;28;20360;-74
2021/03/15 07:36:25;;;;;;;8.27;2.97;;;6.30;99.90;;;;;;5064344;28;20108;-86
2021/03/15 07:38:51;;;;;;;12.85;3.33;;;6.40;99.90;;;;;;5057954;28;20040;-75
2021/03/15 07:41:19;;;;;;;12.05;3.25;;;6.40;99.90;;;;;;5059998;28;20029;-74
2021/03/15 07:43:46;;;;;;;7.57;3.10;;;6.40;99.90;;;;;;5048725;28;20116;-75
2021/03/15 07:46:27;;;;;;;10.07;3.40;;;6.50;99.90;;;;;;5051224;28;20020;-75
2021/03/15 07:48:54;;;;;;;11.98;3.47;;;6.60;99.90;;;;;;5034399;28;20439;-73
2021/03/15 07:51:40;;;;;;;6.35;3.25;;;6.60;99.90;;;;;;5058766;28;20123;-74
2021/03/15 07:54:10;;;;;;;7.45;3.42;;;6.60;99.90;;;;;;5048991;28;20033;-73
2021/03/15 07:56:38;;;;;;;8.13;3.45;;;6.60;99.90;;;;;;5060957;28;20025;-74
2021/03/15 07:59:04;;;;;;;6.55;3.20;;;6.60;99.90;;;;;;5068964;28;20028;-73
2021/03/15 08:01:31;;;;;;;7.82;3.30;;;6.50;99.90;;;;;;5063626;28;20043;-73
2021/03/15 08:03:57;;;;;;;13.52;3.70;;;6.50;99.90;;;;;;5064251;28;20029;-73
2021/03/15 08:06:23;;;;;;;6.20;3.35;;;6.50;99.90;;;;;;5062131;28;20029;-73
2021/03/15 08:08:52;;;;;;;5.47;3.20;;;6.40;99.90;;;;;;5058172;28;20036;-73
2021/03/15 08:11:19;;;;;;;10.40;3.78;;;6.50;99.90;;;;;;5058879;28;20061;-72
2021/03/15 08:13:48;;;;;;;8.18;3.70;;;6.50;99.90;;;;;;5059008;28;20063;-73
2021/03/15 08:16:18;;;;;;;6.32;3.08;;;6.50;99.90;;;;;;5048180;28;20032;-73
2021/03/15 08:18:46;;;;;;;11.10;3.88;;;6.60;99.90;;;;;;5053716;28;20034;-72
2021/03/15 08:21:17;;;;;;;7.53;3.65;;;6.70;99.90;;;;;;5051712;28;20016;-72
2021/03/15 08:23:44;;;;;;;9.43;3.88;;;6.80;99.90;;;;;;5048908;28;20111;-73
2021/03/15 08:26:13;;;;;;;8.93;3.85;;;7.00;99.90;;;;;;5059577;28;20040;-72
2021/03/15 08:28:39;;;;;;;7.30;3.83;;;7.00;99.90;;;;;;5057399;28;20546;-72
2021/03/15 08:31:25;;;;;;;5.82;3.10;;;7.00;99.90;;;;;;5059103;28;20083;-74
2021/03/15 08:33:51;;;;;;;6.38;3.40;;;7.10;99.90;;;;;;5054026;28;20101;-74
2021/03/15 08:36:17;;;;;;;16.48;3.83;;;7.20;99.90;;;;;;5058133;28;20032;-74
2021/03/15 08:38:44;;;;;;;4.63;3.00;;;7.30;99.90;;;;;;5055721;28;20059;-73
2021/03/15 08:41:20;;;;;;;4.38;3.10;;;7.30;99.90;;;;;;5050974;28;20027;-73
2021/03/15 08:43:51;;;;;;;5.47;3.47;;;7.30;99.90;;;;;;5051894;28;20643;-74
2021/03/15 08:46:19;;;;;;;6.70;3.28;;;7.40;99.90;;;;;;5056885;28;20025;-74
2021/03/15 08:48:48;;;;;;;9.32;3.72;;;7.40;99.90;;;;;;5056965;28;20040;-73
2021/03/15 08:51:35;;;;;;;3.70;2.92;;;7.50;99.90;;;;;;5061851;28;20028;-73
2021/03/15 08:54:02;;;;;;;5.53;2.97;;;7.50;99.90;;;;;;5060887;28;20123;-73
2021/03/15 08:56:28;;;;;;;4.90;2.97;;;7.40;99.90;;;;;;5060269;28;20143;-72
2021/03/15 08:58:59;;;;;;;7.63;3.33;;;7.40;99.90;;;;;;5060712;28;20360;-71
2021/03/15 09:01:45;;;;;;;9.68;3.80;;;7.40;99.90;;;;;;5059732;28;20038;-73
2021/03/15 09:04:27;;;;;;;5.43;3.20;;;7.40;99.90;;;;;;5058677;28;20029;-73
2021/03/15 09:06:52;;;;;;;7.85;3.55;;;7.50;99.90;;;;;;5056684;28;20100;-73
2021/03/15 09:09:25;;;;;;;8.27;3.45;;;7.60;99.90;;;;;;5054729;28;20454;-73
2021/03/15 09:11:52;;;;;;;6.68;3.60;;;7.60;99.90;;;;;;5062909;28;20087;-72
2021/03/15 09:14:22;;;;;;;6.65;3.90;;;7.60;99.90;;;;;;5064223;28;20396;-78
2021/03/15 09:16:48;;;;;;;5.30;3.40;;;7.60;99.90;;;;;;5057935;28;20024;-74
2021/03/15 09:19:24;;;;;;;8.63;4.03;;;7.50;99.90;;;;;;5057158;28;20089;-74
2021/03/15 09:21:53;;;;;;;6.78;4.03;;;7.50;99.90;;;;;;5058224;28;20025;-74
2021/03/15 09:24:34;;;;;;;7.32;3.63;;;7.60;99.90;;;;;;5063709;28;20483;-76
2021/03/15 09:27:04;;;;;;;8.38;4.22;;;7.90;99.90;;;;;;5055184;28;20136;-76
2021/03/15 09:29:34;;;;;;;6.88;4.10;;;7.90;99.90;;;;;;5059202;28;20032;-75
2021/03/15 09:32:01;;;;;;;6.65;4.03;;;8.00;99.90;;;;;;5054079;28;20040;-74
2021/03/15 09:34:27;;;;;;;7.15;3.78;;;7.90;99.90;;;;;;5052829;28;20086;-75
2021/03/15 09:36:58;;;;;;;7.13;3.53;;;7.90;99.90;;;;;;5058102;28;20448;-75
2021/03/15 09:39:25;;;;;;;5.10;3.77;;;8.00;99.90;;;;;;5057053;28;20422;-75
2021/03/15 09:41:52;;;;;;;6.22;3.78;;;8.10;99.90;;;;;;5056471;28;20020;-75
2021/03/15 09:44:28;;;;;;;6.60;3.53;;;8.10;99.90;;;;;;5054022;28;20028;-75
2021/03/15 09:46:55;;;;;;;5.82;3.38;;;8.20;99.90;;;;;;5057096;28;20029;-75
2021/03/15 09:49:50;;;;;;;11.30;4.18;;;8.40;99.90;;;;;;5058187;28;20059;-75
2021/03/15 09:52:21;;;;;;;6.22;3.30;;;8.30;99.90;;;;;;5039460;28;20082;-75
2021/03/15 09:54:51;;;;;;;4.80;3.40;;;8.40;99.90;;;;;;5050096;28;20085;-75
2021/03/15 09:57:18;;;;;;;7.50;3.72;;;8.40;99.90;;;;;;5055757;28;20099;-75
2021/03/15 09:59:45;;;;;;;5.90;3.15;;;8.50;99.90;;;;;;5051338;28;20032;-75
2021/03/15 10:02:14;;;;;;;5.22;3.35;;;8.40;99.90;;;;;;5056695;28;20260;-75
2021/03/15 10:04:41;;;;;;;6.15;3.30;;;8.50;99.90;;;;;;5057312;28;20064;-75
2021/03/15 10:07:10;;;;;;;5.10;2.88;;;8.60;99.90;;;;;;5055277;28;20394;-75
2021/03/15 10:09:39;;;;;;;6.30;2.72;;;8.60;99.90;;;;;;5052972;28;20029;-74
2021/03/15 10:12:25;;;;;;;4.75;2.83;;;8.50;99.90;;;;;;5050709;28;20028;-75
2021/03/15 10:15:01;;;;;;;7.70;3.20;;;8.40;99.90;;;;;;5052523;28;20437;-75
2021/03/15 10:17:26;;;;;;;5.03;2.83;;;8.50;99.90;;;;;;5055618;28;20123;-75
2021/03/15 10:19:52;;;;;;;4.60;2.60;;;8.50;99.50;;;;;;5062524;28;20583;-74
2021/03/15 10:22:19;;;;;;;7.85;3.15;;;8.50;99.90;;;;;;5055329;28;20023;-75
2021/03/15 10:24:46;;;;;;;4.38;2.85;;;8.60;99.90;;;;;;5059402;28;20032;-74
2021/03/15 10:27:31;;;;;;;4.93;2.83;;;8.60;99.90;;;;;;5060552;28;20098;-74
2021/03/15 10:29:57;;;;;;;5.35;2.78;;;8.50;99.90;;;;;;5055344;28;20041;-75
2021/03/15 10:32:29;;;;;;;5.03;2.22;;;8.50;99.90;;;;;;5056481;28;20028;-75
2021/03/15 10:34:55;;;;;;;;;;;8.60;99.30;;;;;;5057789;28;20471;-75
2021/03/15 10:37:23;;;;;;;6.75;2.90;;;8.80;99.00;;;;;;5054893;28;19916;-74
2021/03/15 10:39:50;;;;;;;5.35;2.40;;;9.00;98.70;;;;;;5063754;28;20063;-75
2021/03/15 10:42:20;;;;;;;5.20;2.17;;;9.00;98.50;;;;;;5061674;28;20114;-75
2021/03/15 10:44:46;;;;;;;5.68;2.28;;;9.10;98.40;;;;;;5056321;28;20028;-76
2021/03/15 10:47:13;;;;;;;6.22;3.25;;;8.90;99.10;;;;;;5055475;28;20051;-76
2021/03/15 10:49:40;;;;;;;3.45;2.42;;;8.80;99.10;;;;;;5036716;28;20037;-76
2021/03/15 10:52:08;;;;;;;5.82;3.10;;;8.70;98.70;;;;;;5032436;28;20502;-76
2021/03/15 10:54:38;;;;;;;2.38;1.90;;;8.60;99.60;;;;;;5031821;28;20036;-76
2021/03/15 10:57:15;;;;;;;;;;;8.60;99.60;;;;;;5031084;28;20499;-75
2021/03/15 10:59:42;;;;;;;4.18;2.13;;;8.40;99.90;;;;;;5033090;28;20019;-76
2021/03/15 11:02:09;;;;;;;3.42;1.90;;;8.30;99.90;;;;;;5038211;28;20115;-77
2021/03/15 11:04:41;;;;;;;3.90;2.00;;;8.30;99.90;;;;;;5040620;28;20074;-75
2021/03/15 11:07:29;;;;;;;2.78;1.90;;;8.40;99.90;;;;;;5045472;28;20064;-75
2021/03/15 11:10:01;;;;;;;2.88;1.83;;;8.50;99.90;;;;;;5044761;28;20406;-75
2021/03/15 11:12:33;;;;;;;;;;;8.80;99.80;;;;;;5042833;28;20036;-75
2021/03/15 11:15:08;;;;;;;1.70;1.60;;;9.00;99.90;;;;;;5042848;28;19915;-75
2021/03/15 11:17:34;;;;;;;3.75;2.00;;;9.60;96.90;;;;;;5045065;28;20037;-75
2021/03/15 11:20:00;;;;;;;4.63;1.88;;;9.70;95.80;;;;;;5041999;28;20048;-75
2021/03/15 11:22:25;;;;;;;2.47;1.73;;;9.70;96.00;;;;;;5042398;28;20035;-75
2021/03/15 11:25:11;;;;;;;2.28;1.63;;;9.80;95.10;;;;;;5044123;28;20586;-75
2021/03/15 11:27:37;;;;;;;2.45;1.60;;;10.10;93.70;;;;;;5045785;28;20032;-75
2021/03/15 11:30:04;;;;;;;4.20;1.70;;;9.90;93.40;;;;;;5038786;28;20025;-75
2021/03/15 11:32:31;;;;;;;3.70;1.75;;;9.40;93.70;;;;;;5040778;28;20120;-75
2021/03/15 11:34:56;;;;;;;2.65;1.63;;;9.20;95.70;;;;;;5043942;28;20028;-75
2021/03/15 11:37:26;;;;;;;2.35;1.70;;;9.30;96.20;;;;;;5043639;28;20116;-75
2021/03/15 11:39:52;;;;;;;2.42;1.60;;;9.90;93.30;;;;;;5040543;28;20029;-75
2021/03/15 11:42:31;;;;;;;2.95;1.85;;;10.20;92.70;;;;;;5046102;28;20104;-75
2021/03/15 11:45:33;;;;;;;2.13;1.70;;;10.80;90.40;;;;;;5041657;28;20442;-75
2021/03/15 11:47:58;;;;;;;2.63;1.95;;;10.60;89.00;;;;;;5044056;28;20499;-76
2021/03/15 11:50:25;;;;;;;2.50;1.80;;;11.10;87.00;;;;;;5061882;28;20075;-80
2021/03/15 11:52:52;;;;;;;3.85;1.90;;;11.90;84.60;;;;;;5063989;28;20024;-75
2021/03/15 11:55:40;;;;;;;3.90;2.08;;;12.30;78.00;;;;;;5049203;28;20099;-78
2021/03/15 11:58:08;;;;;;;2.65;1.83;;;12.80;75.20;;;;;;5055079;28;20048;-77
2021/03/15 12:00:34;;;;;;;2.83;1.88;;;12.40;73.00;;;;;;5055852;28;20028;-72
2021/03/15 12:03:01;;;;;;;3.60;2.55;;;11.80;75.20;;;;;;5055075;28;20399;-75
2021/03/15 12:05:26;;;;;;;3.70;2.28;;;11.20;78.00;;;;;;5056947;28;20036;-74
2021/03/15 12:07:52;;;;;;;3.97;2.50;;;10.70;82.30;;;;;;5049909;28;20033;-73
2021/03/15 12:10:17;;;;;;;2.55;2.05;;;10.50;86.60;;;;;;5055950;28;20032;-73
2021/03/15 12:12:43;;;;;;;2.60;2.00;;;10.50;81.50;;;;;;5052901;28;20044;-74
2021/03/15 12:15:12;;;;;;;2.88;1.92;;;10.30;83.50;;;;;;5066769;28;20078;-73
2021/03/15 12:17:38;;;;;;;2.88;1.80;;;10.30;84.20;;;;;;5057365;28;20020;-74
2021/03/15 12:20:06;;;;;;;2.33;1.70;;;10.30;83.10;;;;;;5051726;28;20033;-74
2021/03/15 12:22:35;;;;;;;2.08;1.77;;;10.20;83.70;;;;;;5071310;28;20021;-74
2021/03/15 12:25:02;;;;;;;2.20;1.70;;;10.30;85.80;;;;;;5066978;28;20030;-73
2021/03/15 12:27:28;;;;;;;1.80;1.67;;;10.30;85.20;;;;;;5060912;28;20037;-74
2021/03/15 12:29:53;;;;;;;3.35;2.00;;;10.20;84.40;;;;;;5057442;28;20027;-74
2021/03/15 12:32:19;;;;;;;2.25;1.75;;;10.00;85.50;;;;;;5055125;28;20028;-74
2021/03/15 12:34:45;;;;;;;2.58;1.92;;;9.80;86.10;;;;;;5042202;28;20072;-74
2021/03/15 12:37:11;;;;;;;4.72;1.83;;;9.70;87.70;;;;;;5054686;28;20217;-74
2021/03/15 12:39:37;;;;;;;2.33;1.73;;;9.60;86.70;;;;;;5051454;28;20369;-73
2021/03/15 12:42:03;;;;;;;3.45;1.83;;;9.30;90.80;;;;;;5065758;28;20059;-74
2021/03/15 12:44:29;;;;;;;8.73;2.00;;;9.00;93.10;;;;;;5063642;28;20060;-74
2021/03/15 12:46:55;;;;;;;4.20;2.00;;;8.90;96.90;;;;;;5061821;28;20041;-74
2021/03/15 12:49:21;;;;;;;6.00;2.80;;;8.60;98.40;;;;;;5059282;28;20048;-74
2021/03/15 12:51:48;;;;;;;5.55;2.60;;;8.40;99.90;;;;;;5050580;28;20085;-74
2021/03/15 12:54:15;;;;;;;5.18;2.45;;;8.50;99.90;;;;;;5051721;28;20032;-74
2021/03/15 12:56:41;;;;;;;4.53;2.55;;;8.40;99.90;;;;;;5040981;28;20021;-74
2021/03/15 12:59:06;;;;;;;4.70;2.88;;;8.50;99.90;;;;;;5066703;28;20024;-73
2021/03/15 13:01:32;;;;;;;4.30;2.85;;;8.60;99.90;;;;;;5062830;28;20017;-74
2021/03/15 13:03:57;;;;;;;5.38;2.58;;;8.60;99.90;;;;;;5051095;28;20025;-73
2021/03/15 13:06:26;;;;;;;4.07;2.60;;;8.60;99.90;;;;;;5053147;28;20021;-73
2021/03/15 13:08:51;;;;;;;3.50;2.33;;;8.70;99.90;;;;;;5058469;28;20024;-74